sensor_id;sensor_type;location;lat;lon;timestamp;temperature;humidity
64689;DHT22;62504;46.070;14.492;2024-03-23T00:55:13;12.40;99.90
64689;DHT22;62504;46.070;14.492;2024-03-23T00:57:39;12.30;99.90
64689;DHT22;62504;46.070;14.492;2024-03-23T01:00:05;12.20;99.90
64689;DHT22;62504;46.070;14.492;2024-03-23T01:02:32;12.10;99.90
64689;DHT22;62504;46.070;14.492;2024-03-23T01:04:58;12.10;99.90
64689;DHT22;62504;46.070;14.492;2024-03-23T01:07:23;12.20;99.90
64689;DHT22;62504;46.070;14.492;2024-03-23T01:09:49;12.00;99.90
64689;DHT22;62504;46.070;14.492;2024-03-23T01:12:15;12.10;99.90
64689;DHT22;62504;46.070;14.492;2024-03-23T01:14:40;12.00;99.90
64689;DHT22;62504;46.070;14.492;2024-03-23T01:17:06;12.00;99.90
64689;DHT22;62504;46.070;14.492;2024-03-23T01:19:31;11.90;99.90
64689;DHT22;62504;46.070;14.492;2024-03-23T01:21:57;11.70;99.90
64689;DHT22;62504;46.070;14.492;2024-03-23T01:24:23;11.60;99.90
64689;DHT22;62504;46.070;14.492;2024-03-23T01:26:48;11.50;99.90
64689;DHT22;62504;46.070;14.492;2024-03-23T01:29:14;11.50;99.90
64689;DHT22;62504;46.070;14.492;2024-03-23T01:31:40;11.50;99.90
64689;DHT22;62504;46.070;14.492;2024-03-23T01:34:05;11.60;99.90
64689;DHT22;62504;46.070;14.492;2024-03-23T01:36:31;11.60;99.90
64689;DHT22;62504;46.070;14.492;2024-03-23T01:38:57;11.40;99.90
64689;DHT22;62504;46.070;14.492;2024-03-23T01:41:24;11.40;99.90
64689;DHT22;62504;46.070;14.492;2024-03-23T01:43:50;11.30;99.90
64689;DHT22;62504;46.070;14.492;2024-03-23T01:46:16;11.40;99.90
64689;DHT22;62504;46.070;14.492;2024-03-23T01:48:42;11.30;99.90
64689;DHT22;62504;46.070;14.492;2024-03-23T01:51:08;11.20;99.90
64689;DHT22;62504;46.070;14.492;2024-03-23T01:53:34;11.20;99.90
64689;DHT22;62504;46.070;14.492;2024-03-23T01:56:00;11.10;99.90
64689;DHT22;62504;46.070;14.492;2024-03-23T01:58:27;11.20;99.90
64689;DHT22;62504;46.070;14.492;2024-03-23T02:00:53;11.20;99.90
64689;DHT22;62504;46.070;14.492;2024-03-23T02:03:26;11.10;99.90
64689;DHT22;62504;46.070;14.492;2024-03-23T02:05:53;11.10;99.90
64689;DHT22;62504;46.070;14.492;2024-03-23T02:08:21;11.10;99.90
64689;DHT22;62504;46.070;14.492;2024-03-23T02:10:48;11.00;99.90
64689;DHT22;62504;46.070;14.492;2024-03-23T02:13:15;10.90;99.90
64689;DHT22;62504;46.070;14.492;2024-03-23T02:15:41;10.90;99.90
64689;DHT22;62504;46.070;14.492;2024-03-23T02:18:10;10.80;99.90
64689;DHT22;62504;46.070;14.492;2024-03-23T02:20:36;10.80;99.90
64689;DHT22;62504;46.070;14.492;2024-03-23T02:23:03;10.90;99.90
64689;DHT22;62504;46.070;14.492;2024-03-23T02:25:29;10.90;99.90
64689;DHT22;62504;46.070;14.492;2024-03-23T02:27:54;10.80;99.90
64689;DHT22;62504;46.070;14.492;2024-03-23T02:30:20;10.80;99.90
64689;DHT22;62504;46.070;14.492;2024-03-23T02:32:46;10.60;99.90
64689;DHT22;62504;46.070;14.492;2024-03-23T02:35:12;10.70;99.90
64689;DHT22;62504;46.070;14.492;2024-03-23T02:37:37;10.70;99.90
64689;DHT22;62504;46.070;14.492;2024-03-23T02:40:03;10.60;99.90
64689;DHT22;62504;46.070;14.492;2024-03-23T02:42:29;10.60;99.90
64689;DHT22;62504;46.070;14.492;2024-03-23T02:44:55;10.60;99.90
64689;DHT22;62504;46.070;14.492;2024-03-23T02:47:20;10.50;99.90
64689;DHT22;62504;46.070;14.492;2024-03-23T02:49:46;10.50;99.90
64689;DHT22;62504;46.070;14.492;2024-03-23T02:52:12;10.50;99.90
64689;DHT22;62504;46.070;14.492;2024-03-23T02:54:37;10.50;99.90
64689;DHT22;62504;46.070;14.492;2024-03-23T02:57:03;10.50;99.90
64689;DHT22;62504;46.070;14.492;2024-03-23T02:59:28;10.40;99.90
64689;DHT22;62504;46.070;14.492;2024-03-23T03:01:54;10.40;99.90
64689;DHT22;62504;46.070;14.492;2024-03-23T03:04:20;10.40;99.90
64689;DHT22;62504;46.070;14.492;2024-03-23T03:06:49;10.50;99.90
64689;DHT22;62504;46.070;14.492;2024-03-23T03:09:15;10.30;99.90
64689;DHT22;62504;46.070;14.492;2024-03-23T03:11:41;10.20;99.90
64689;DHT22;62504;46.070;14.492;2024-03-23T03:14:06;10.00;99.90
64689;DHT22;62504;46.070;14.492;2024-03-23T03:16:33;10.10;99.90
64689;DHT22;62504;46.070;14.492;2024-03-23T03:18:59;10.00;99.90
64689;DHT22;62504;46.070;14.492;2024-03-23T03:21:24;10.00;99.90
64689;DHT22;62504;46.070;14.492;2024-03-23T03:23:50;10.00;99.90
64689;DHT22;62504;46.070;14.492;2024-03-23T03:26:17;9.90;99.90
64689;DHT22;62504;46.070;14.492;2024-03-23T03:28:42;10.00;99.90
64689;DHT22;62504;46.070;14.492;2024-03-23T03:31:09;9.90;99.90
64689;DHT22;62504;46.070;14.492;2024-03-23T03:33:35;10.00;99.90
64689;DHT22;62504;46.070;14.492;2024-03-23T03:36:00;10.00;99.90
64689;DHT22;62504;46.070;14.492;2024-03-23T03:38:26;10.00;99.90
64689;DHT22;62504;46.070;14.492;2024-03-23T03:40:52;10.00;99.90
64689;DHT22;62504;46.070;14.492;2024-03-23T03:43:18;9.90;99.90
64689;DHT22;62504;46.070;14.492;2024-03-23T03:45:54;9.80;99.90
64689;DHT22;62504;46.070;14.492;2024-03-23T03:48:20;9.80;99.90
64689;DHT22;62504;46.070;14.492;2024-03-23T03:50:46;9.90;99.90
64689;DHT22;62504;46.070;14.492;2024-03-23T03:53:11;9.90;99.90
64689;DHT22;62504;46.070;14.492;2024-03-23T03:55:37;9.80;99.90
64689;DHT22;62504;46.070;14.492;2024-03-23T03:58:03;9.80;99.90
64689;DHT22;62504;46.070;14.492;2024-03-23T04:00:30;9.90;99.90
64689;DHT22;62504;46.070;14.492;2024-03-23T04:02:56;9.80;99.90
64689;DHT22;62504;46.070;14.492;2024-03-23T04:05:21;9.80;99.90
64689;DHT22;62504;46.070;14.492;2024-03-23T04:07:47;9.80;99.90
64689;DHT22;62504;46.070;14.492;2024-03-23T04:10:13;9.80;99.90
64689;DHT22;62504;46.070;14.492;2024-03-23T04:12:40;9.70;99.90
64689;DHT22;62504;46.070;14.492;2024-03-23T04:15:06;9.70;99.90
64689;DHT22;62504;46.070;14.492;2024-03-23T04:17:32;9.70;99.90
64689;DHT22;62504;46.070;14.492;2024-03-23T04:20:00;9.80;99.90
64689;DHT22;62504;46.070;14.492;2024-03-23T04:22:26;9.60;99.90
64689;DHT22;62504;46.070;14.492;2024-03-23T04:24:55;9.60;99.90
64689;DHT22;62504;46.070;14.492;2024-03-23T04:27:21;9.50;99.90
64689;DHT22;62504;46.070;14.492;2024-03-23T04:29:50;9.50;99.90
64689;DHT22;62504;46.070;14.492;2024-03-23T04:32:16;9.50;99.90
64689;DHT22;62504;46.070;14.492;2024-03-23T04:34:43;9.50;99.90
64689;DHT22;62504;46.070;14.492;2024-03-23T04:37:09;9.40;99.90
64689;DHT22;62504;46.070;14.492;2024-03-23T04:39:38;9.30;99.90
64689;DHT22;62504;46.070;14.492;2024-03-23T04:42:05;9.30;99.90
64689;DHT22;62504;46.070;14.492;2024-03-23T04:44:31;9.30;99.90
64689;DHT22;62504;46.070;14.492;2024-03-23T04:46:57;9.30;99.90
64689;DHT22;62504;46.070;14.492;2024-03-23T04:49:23;9.40;99.90
64689;DHT22;62504;46.070;14.492;2024-03-23T04:51:49;9.30;99.90
64689;DHT22;62504;46.070;14.492;2024-03-23T04:54:15;9.30;99.90
64689;DHT22;62504;46.070;14.492;2024-03-23T04:56:41;9.30;99.90
64689;DHT22;62504;46.070;14.492;2024-03-23T04:59:07;9.30;99.90
64689;DHT22;62504;46.070;14.492;2024-03-23T05:01:34;9.30;99.90
64689;DHT22;62504;46.070;14.492;2024-03-23T05:04:00;9.30;99.90
64689;DHT22;62504;46.070;14.492;2024-03-23T05:06:25;9.30;99.90
64689;DHT22;62504;46.070;14.492;2024-03-23T05:08:51;9.20;99.90
64689;DHT22;62504;46.070;14.492;2024-03-23T05:11:17;9.20;99.90
64689;DHT22;62504;46.070;14.492;2024-03-23T05:13:43;9.20;99.90
64689;DHT22;62504;46.070;14.492;2024-03-23T05:16:09;9.30;99.90
64689;DHT22;62504;46.070;14.492;2024-03-23T05:18:35;9.30;99.90
64689;DHT22;62504;46.070;14.492;2024-03-23T05:21:01;9.30;99.90
64689;DHT22;62504;46.070;14.492;2024-03-23T05:23:28;9.30;99.90
64689;DHT22;62504;46.070;14.492;2024-03-23T05:25:54;9.40;99.90
64689;DHT22;62504;46.070;14.492;2024-03-23T05:28:20;9.40;99.90
64689;DHT22;62504;46.070;14.492;2024-03-23T05:30:55;9.40;99.90
64689;DHT22;62504;46.070;14.492;2024-03-23T05:33:22;9.40;99.90
64689;DHT22;62504;46.070;14.492;2024-03-23T05:35:59;9.40;99.90
64689;DHT22;62504;46.070;14.492;2024-03-23T05:38:25;9.50;99.90
64689;DHT22;62504;46.070;14.492;2024-03-23T05:40:59;9.40;99.90
64689;DHT22;62504;46.070;14.492;2024-03-23T05:43:25;9.60;99.90
64689;DHT22;62504;46.070;14.492;2024-03-23T05:45:55;9.70;99.90
64689;DHT22;62504;46.070;14.492;2024-03-23T05:48:21;9.70;99.90
64689;DHT22;62504;46.070;14.492;2024-03-23T05:50:51;9.60;99.90
64689;DHT22;62504;46.070;14.492;2024-03-23T05:53:17;9.60;99.90
64689;DHT22;62504;46.070;14.492;2024-03-23T05:55:43;9.50;99.90
64689;DHT22;62504;46.070;14.492;2024-03-23T05:58:09;9.50;99.90
64689;DHT22;62504;46.070;14.492;2024-03-23T06:00:35;9.50;99.90
64689;DHT22;62504;46.070;14.492;2024-03-23T06:03:01;9.50;99.90
64689;DHT22;62504;46.070;14.492;2024-03-23T06:05:27;9.50;99.90
64689;DHT22;62504;46.070;14.492;2024-03-23T06:07:53;9.60;99.90
64689;DHT22;62504;46.070;14.492;2024-03-23T06:10:18;9.90;99.90
64689;DHT22;62504;46.070;14.492;2024-03-23T06:12:46;10.40;99.90
64689;DHT22;62504;46.070;14.492;2024-03-23T06:15:12;10.70;99.90
64689;DHT22;62504;46.070;14.492;2024-03-23T06:17:38;10.90;99.90
64689;DHT22;62504;46.070;14.492;2024-03-23T06:20:04;12.60;99.90
64689;DHT22;62504;46.070;14.492;2024-03-23T06:22:31;14.60;99.90
64689;DHT22;62504;46.070;14.492;2024-03-23T06:24:57;15.50;99.90
64689;DHT22;62504;46.070;14.492;2024-03-23T06:27:23;16.40;99.90
64689;DHT22;62504;46.070;14.492;2024-03-23T06:29:48;16.60;99.90
64689;DHT22;62504;46.070;14.492;2024-03-23T06:32:14;16.30;99.90
64689;DHT22;62504;46.070;14.492;2024-03-23T06:34:43;16.00;99.90
64689;DHT22;62504;46.070;14.492;2024-03-23T06:37:08;15.40;99.90
64689;DHT22;62504;46.070;14.492;2024-03-23T06:39:38;14.70;99.90
64689;DHT22;62504;46.070;14.492;2024-03-23T06:42:04;14.30;99.90
64689;DHT22;62504;46.070;14.492;2024-03-23T06:44:30;13.90;99.90
64689;DHT22;62504;46.070;14.492;2024-03-23T06:46:57;15.00;99.90
64689;DHT22;62504;46.070;14.492;2024-03-23T06:49:23;15.80;99.90
64689;DHT22;62504;46.070;14.492;2024-03-23T06:51:49;15.20;99.90
64689;DHT22;62504;46.070;14.492;2024-03-23T06:54:16;15.00;99.90
64689;DHT22;62504;46.070;14.492;2024-03-23T06:56:41;14.80;99.90
64689;DHT22;62504;46.070;14.492;2024-03-23T06:59:07;14.40;99.90
64689;DHT22;62504;46.070;14.492;2024-03-23T07:01:33;14.40;99.90
64689;DHT22;62504;46.070;14.492;2024-03-23T07:03:58;14.50;99.90
64689;DHT22;62504;46.070;14.492;2024-03-23T07:06:24;14.50;99.90
64689;DHT22;62504;46.070;14.492;2024-03-23T07:08:50;14.70;99.90
64689;DHT22;62504;46.070;14.492;2024-03-23T07:11:21;14.70;99.90
64689;DHT22;62504;46.070;14.492;2024-03-23T07:13:49;14.80;99.90
64689;DHT22;62504;46.070;14.492;2024-03-23T07:16:15;14.80;99.90
64689;DHT22;62504;46.070;14.492;2024-03-23T07:18:41;15.20;99.90
64689;DHT22;62504;46.070;14.492;2024-03-23T07:21:07;15.40;99.90
64689;DHT22;62504;46.070;14.492;2024-03-23T07:23:33;15.60;99.90
64689;DHT22;62504;46.070;14.492;2024-03-23T07:26:03;15.90;99.90
64689;DHT22;62504;46.070;14.492;2024-03-23T07:28:33;16.10;99.90
64689;DHT22;62504;46.070;14.492;2024-03-23T07:33:29;17.00;99.90
64689;DHT22;62504;46.070;14.492;2024-03-23T07:35:55;16.40;99.90
64689;DHT22;62504;46.070;14.492;2024-03-23T07:38:21;15.90;99.90
64689;DHT22;62504;46.070;14.492;2024-03-23T07:40:47;15.60;99.90
64689;DHT22;62504;46.070;14.492;2024-03-23T07:43:13;15.60;99.90
64689;DHT22;62504;46.070;14.492;2024-03-23T07:45:39;15.70;99.90
64689;DHT22;62504;46.070;14.492;2024-03-23T07:48:04;15.90;99.90
64689;DHT22;62504;46.070;14.492;2024-03-23T07:50:30;16.50;99.90
64689;DHT22;62504;46.070;14.492;2024-03-23T07:52:56;17.00;99.90
64689;DHT22;62504;46.070;14.492;2024-03-23T07:55:21;17.50;99.90
64689;DHT22;62504;46.070;14.492;2024-03-23T07:57:47;17.90;99.90
64689;DHT22;62504;46.070;14.492;2024-03-23T08:00:13;18.20;99.90
64689;DHT22;62504;46.070;14.492;2024-03-23T08:02:39;17.80;99.90
64689;DHT22;62504;46.070;14.492;2024-03-23T08:05:05;17.70;99.90
64689;DHT22;62504;46.070;14.492;2024-03-23T08:07:31;17.50;99.90
64689;DHT22;62504;46.070;14.492;2024-03-23T08:09:57;17.20;99.90
64689;DHT22;62504;46.070;14.492;2024-03-23T08:12:24;17.00;99.90
64689;DHT22;62504;46.070;14.492;2024-03-23T08:14:50;16.90;99.90
64689;DHT22;62504;46.070;14.492;2024-03-23T08:17:15;16.80;99.90
64689;DHT22;62504;46.070;14.492;2024-03-23T08:19:41;16.80;99.90
64689;DHT22;62504;46.070;14.492;2024-03-23T08:22:06;16.80;99.90
64689;DHT22;62504;46.070;14.492;2024-03-23T08:24:34;16.60;99.90
64689;DHT22;62504;46.070;14.492;2024-03-23T08:26:59;16.40;99.90
64689;DHT22;62504;46.070;14.492;2024-03-23T08:29:25;16.30;99.90
64689;DHT22;62504;46.070;14.492;2024-03-23T08:31:51;16.30;99.90
64689;DHT22;62504;46.070;14.492;2024-03-23T08:34:16;16.30;99.90
64689;DHT22;62504;46.070;14.492;2024-03-23T08:36:42;16.40;99.90
64689;DHT22;62504;46.070;14.492;2024-03-23T08:39:07;16.30;99.90
64689;DHT22;62504;46.070;14.492;2024-03-23T08:41:33;16.40;99.90
64689;DHT22;62504;46.070;14.492;2024-03-23T08:43:59;16.40;99.90
64689;DHT22;62504;46.070;14.492;2024-03-23T08:46:25;16.40;99.90
64689;DHT22;62504;46.070;14.492;2024-03-23T08:48:51;16.40;99.90
64689;DHT22;62504;46.070;14.492;2024-03-23T08:51:18;16.30;99.90
64689;DHT22;62504;46.070;14.492;2024-03-23T08:53:44;16.30;99.90
64689;DHT22;62504;46.070;14.492;2024-03-23T08:56:10;16.50;99.90
64689;DHT22;62504;46.070;14.492;2024-03-23T08:58:37;16.50;99.90
64689;DHT22;62504;46.070;14.492;2024-03-23T09:01:08;16.50;99.90
64689;DHT22;62504;46.070;14.492;2024-03-23T09:03:35;16.70;99.90
64689;DHT22;62504;46.070;14.492;2024-03-23T09:06:02;17.50;99.90
64689;DHT22;62504;46.070;14.492;2024-03-23T09:08:28;18.10;99.90
64689;DHT22;62504;46.070;14.492;2024-03-23T09:10:53;18.50;99.90
64689;DHT22;62504;46.070;14.492;2024-03-23T09:13:20;18.80;99.90
64689;DHT22;62504;46.070;14.492;2024-03-23T09:15:50;19.00;99.90
64689;DHT22;62504;46.070;14.492;2024-03-23T09:18:16;19.10;99.90
64689;DHT22;62504;46.070;14.492;2024-03-23T09:20:42;19.10;99.90
64689;DHT22;62504;46.070;14.492;2024-03-23T09:23:08;19.20;99.90
64689;DHT22;62504;46.070;14.492;2024-03-23T09:25:40;19.10;99.90
64689;DHT22;62504;46.070;14.492;2024-03-23T09:28:07;19.00;99.90
64689;DHT22;62504;46.070;14.492;2024-03-23T09:30:35;19.20;99.90
64689;DHT22;62504;46.070;14.492;2024-03-23T09:33:02;19.10;99.90
64689;DHT22;62504;46.070;14.492;2024-03-23T09:35:28;18.80;99.90
64689;DHT22;62504;46.070;14.492;2024-03-23T09:37:54;18.70;99.90
64689;DHT22;62504;46.070;14.492;2024-03-23T09:40:20;18.60;99.90
64689;DHT22;62504;46.070;14.492;2024-03-23T09:42:50;18.60;99.90
64689;DHT22;62504;46.070;14.492;2024-03-23T09:45:27;18.40;99.90
64689;DHT22;62504;46.070;14.492;2024-03-23T09:47:54;18.30;99.90
64689;DHT22;62504;46.070;14.492;2024-03-23T09:50:20;18.30;99.90
64689;DHT22;62504;46.070;14.492;2024-03-23T09:52:46;18.30;99.90
64689;DHT22;62504;46.070;14.492;2024-03-23T09:55:12;18.30;99.90
64689;DHT22;62504;46.070;14.492;2024-03-23T09:57:37;18.70;99.90
64689;DHT22;62504;46.070;14.492;2024-03-23T10:00:04;19.10;99.90
64689;DHT22;62504;46.070;14.492;2024-03-23T10:02:30;19.40;99.90
64689;DHT22;62504;46.070;14.492;2024-03-23T10:04:56;19.60;99.90
64689;DHT22;62504;46.070;14.492;2024-03-23T10:07:23;19.50;99.90
64689;DHT22;62504;46.070;14.492;2024-03-23T10:09:49;19.40;99.90
64689;DHT22;62504;46.070;14.492;2024-03-23T10:12:18;19.30;99.90
64689;DHT22;62504;46.070;14.492;2024-03-23T10:14:44;19.20;99.90
64689;DHT22;62504;46.070;14.492;2024-03-23T10:19:49;19.00;99.90
64689;DHT22;62504;46.070;14.492;2024-03-23T10:22:24;18.90;99.90
64689;DHT22;62504;46.070;14.492;2024-03-23T10:24:52;18.80;99.90
64689;DHT22;62504;46.070;14.492;2024-03-23T10:27:20;18.70;99.90
64689;DHT22;62504;46.070;14.492;2024-03-23T10:29:49;18.70;99.90
64689;DHT22;62504;46.070;14.492;2024-03-23T10:32:16;18.70;99.90
64689;DHT22;62504;46.070;14.492;2024-03-23T10:34:42;18.60;99.90
64689;DHT22;62504;46.070;14.492;2024-03-23T10:37:09;18.50;99.90
64689;DHT22;62504;46.070;14.492;2024-03-23T10:39:39;18.60;99.90
64689;DHT22;62504;46.070;14.492;2024-03-23T10:42:06;18.80;99.90
64689;DHT22;62504;46.070;14.492;2024-03-23T10:44:33;19.00;99.90
64689;DHT22;62504;46.070;14.492;2024-03-23T10:47:01;19.00;99.90
64689;DHT22;62504;46.070;14.492;2024-03-23T10:49:32;19.30;99.90
64689;DHT22;62504;46.070;14.492;2024-03-23T10:52:05;19.30;99.90
64689;DHT22;62504;46.070;14.492;2024-03-23T10:54:32;19.30;99.90
64689;DHT22;62504;46.070;14.492;2024-03-23T10:57:14;19.20;99.90
64689;DHT22;62504;46.070;14.492;2024-03-23T10:59:42;19.30;99.90
64689;DHT22;62504;46.070;14.492;2024-03-23T11:02:19;19.30;99.90
64689;DHT22;62504;46.070;14.492;2024-03-23T11:04:45;19.20;99.90
64689;DHT22;62504;46.070;14.492;2024-03-23T11:07:32;19.10;99.90
64689;DHT22;62504;46.070;14.492;2024-03-23T11:09:59;19.10;99.90
64689;DHT22;62504;46.070;14.492;2024-03-23T11:12:29;19.10;99.90
64689;DHT22;62504;46.070;14.492;2024-03-23T11:15:05;19.10;99.90
64689;DHT22;62504;46.070;14.492;2024-03-23T11:17:31;19.00;99.90
64689;DHT22;62504;46.070;14.492;2024-03-23T11:20:00;19.00;99.90
64689;DHT22;62504;46.070;14.492;2024-03-23T11:22:46;18.90;99.90
64689;DHT22;62504;46.070;14.492;2024-03-23T11:25:21;19.00;99.90
64689;DHT22;62504;46.070;14.492;2024-03-23T11:27:48;19.00;99.90
64689;DHT22;62504;46.070;14.492;2024-03-23T11:30:15;19.00;99.90
64689;DHT22;62504;46.070;14.492;2024-03-23T11:32:48;19.00;99.90
64689;DHT22;62504;46.070;14.492;2024-03-23T11:35:34;19.00;99.90
64689;DHT22;62504;46.070;14.492;2024-03-23T11:38:14;19.00;99.90
64689;DHT22;62504;46.070;14.492;2024-03-23T11:40:44;19.00;99.90
64689;DHT22;62504;46.070;14.492;2024-03-23T11:43:14;18.90;99.90
64689;DHT22;62504;46.070;14.492;2024-03-23T11:45:48;18.80;99.90
64689;DHT22;62504;46.070;14.492;2024-03-23T11:48:19;18.90;99.90
64689;DHT22;62504;46.070;14.492;2024-03-23T11:50:46;18.80;99.90
64689;DHT22;62504;46.070;14.492;2024-03-23T11:53:19;18.90;99.90
64689;DHT22;62504;46.070;14.492;2024-03-23T11:58:14;18.90;99.90
64689;DHT22;62504;46.070;14.492;2024-03-23T12:00:41;18.90;99.90
64689;DHT22;62504;46.070;14.492;2024-03-23T12:03:07;19.00;99.90
64689;DHT22;62504;46.070;14.492;2024-03-23T12:05:33;18.90;99.90
64689;DHT22;62504;46.070;14.492;2024-03-23T12:08:33;18.90;99.90
64689;DHT22;62504;46.070;14.492;2024-03-23T12:11:16;19.00;99.90
64689;DHT22;62504;46.070;14.492;2024-03-23T12:13:44;19.10;99.90
64689;DHT22;62504;46.070;14.492;2024-03-23T12:16:18;19.20;99.90
64689;DHT22;62504;46.070;14.492;2024-03-23T12:18:50;19.20;99.90
64689;DHT22;62504;46.070;14.492;2024-03-23T12:21:20;19.00;99.90
64689;DHT22;62504;46.070;14.492;2024-03-23T12:23:48;19.10;99.90
64689;DHT22;62504;46.070;14.492;2024-03-23T12:26:15;19.10;99.90
64689;DHT22;62504;46.070;14.492;2024-03-23T12:28:42;19.20;99.90
64689;DHT22;62504;46.070;14.492;2024-03-23T12:31:08;19.20;99.90
64689;DHT22;62504;46.070;14.492;2024-03-23T12:33:34;19.20;99.90
64689;DHT22;62504;46.070;14.492;2024-03-23T12:35:59;19.00;99.90
64689;DHT22;62504;46.070;14.492;2024-03-23T12:38:25;18.80;99.90
64689;DHT22;62504;46.070;14.492;2024-03-23T12:40:51;18.60;99.90
64689;DHT22;62504;46.070;14.492;2024-03-23T12:43:17;18.60;99.90
64689;DHT22;62504;46.070;14.492;2024-03-23T12:45:47;18.60;99.90
64689;DHT22;62504;46.070;14.492;2024-03-23T12:48:13;18.50;99.90
64689;DHT22;62504;46.070;14.492;2024-03-23T12:50:38;18.40;99.90
64689;DHT22;62504;46.070;14.492;2024-03-23T12:53:04;18.40;99.90
64689;DHT22;62504;46.070;14.492;2024-03-23T12:55:30;18.40;99.90
64689;DHT22;62504;46.070;14.492;2024-03-23T12:57:55;18.30;99.90
64689;DHT22;62504;46.070;14.492;2024-03-23T13:00:22;18.30;99.90
64689;DHT22;62504;46.070;14.492;2024-03-23T13:02:47;18.20;99.90
64689;DHT22;62504;46.070;14.492;2024-03-23T13:05:13;18.20;99.90
64689;DHT22;62504;46.070;14.492;2024-03-23T13:07:39;18.20;99.90
64689;DHT22;62504;46.070;14.492;2024-03-23T13:10:05;18.20;99.90
64689;DHT22;62504;46.070;14.492;2024-03-23T13:12:32;18.20;99.90
64689;DHT22;62504;46.070;14.492;2024-03-23T13:14:59;18.20;99.90
64689;DHT22;62504;46.070;14.492;2024-03-23T13:17:25;18.20;99.90
64689;DHT22;62504;46.070;14.492;2024-03-23T13:19:52;18.20;99.90
64689;DHT22;62504;46.070;14.492;2024-03-23T13:22:18;18.00;99.90
64689;DHT22;62504;46.070;14.492;2024-03-23T13:24:44;18.00;99.90
64689;DHT22;62504;46.070;14.492;2024-03-23T13:27:10;18.00;99.90
64689;DHT22;62504;46.070;14.492;2024-03-23T13:29:36;17.90;99.90
64689;DHT22;62504;46.070;14.492;2024-03-23T13:32:03;17.80;99.90
64689;DHT22;62504;46.070;14.492;2024-03-23T13:34:29;17.80;99.90
64689;DHT22;62504;46.070;14.492;2024-03-23T13:36:55;17.70;99.90
64689;DHT22;62504;46.070;14.492;2024-03-23T13:39:23;17.60;99.90
64689;DHT22;62504;46.070;14.492;2024-03-23T13:41:49;17.70;99.90
64689;DHT22;62504;46.070;14.492;2024-03-23T13:44:14;17.70;99.90
64689;DHT22;62504;46.070;14.492;2024-03-23T13:46:41;17.70;99.90
64689;DHT22;62504;46.070;14.492;2024-03-23T13:49:26;17.60;99.90
64689;DHT22;62504;46.070;14.492;2024-03-23T13:51:53;17.60;99.90
64689;DHT22;62504;46.070;14.492;2024-03-23T13:54:19;17.60;99.90
64689;DHT22;62504;46.070;14.492;2024-03-23T13:56:48;17.70;99.90
64689;DHT22;62504;46.070;14.492;2024-03-23T13:59:14;17.70;99.90
64689;DHT22;62504;46.070;14.492;2024-03-23T14:01:39;17.70;99.90
64689;DHT22;62504;46.070;14.492;2024-03-23T14:04:06;17.60;99.90
64689;DHT22;62504;46.070;14.492;2024-03-23T14:06:31;17.60;99.90
64689;DHT22;62504;46.070;14.492;2024-03-23T14:08:58;17.60;99.90
64689;DHT22;62504;46.070;14.492;2024-03-23T14:11:23;17.50;99.90
64689;DHT22;62504;46.070;14.492;2024-03-23T14:13:52;17.40;99.90
64689;DHT22;62504;46.070;14.492;2024-03-23T14:16:18;17.50;99.90
64689;DHT22;62504;46.070;14.492;2024-03-23T14:18:46;17.50;99.90
64689;DHT22;62504;46.070;14.492;2024-03-23T14:21:12;17.50;99.90
64689;DHT22;62504;46.070;14.492;2024-03-23T14:23:37;17.40;99.90
64689;DHT22;62504;46.070;14.492;2024-03-23T14:26:03;17.50;99.90
64689;DHT22;62504;46.070;14.492;2024-03-23T14:28:29;17.50;99.90
64689;DHT22;62504;46.070;14.492;2024-03-23T14:30:56;17.50;99.90
64689;DHT22;62504;46.070;14.492;2024-03-23T14:33:22;17.40;99.90
64689;DHT22;62504;46.070;14.492;2024-03-23T14:35:54;17.40;99.90
64689;DHT22;62504;46.070;14.492;2024-03-23T14:38:21;17.30;99.90
64689;DHT22;62504;46.070;14.492;2024-03-23T14:40:47;17.20;99.90
64689;DHT22;62504;46.070;14.492;2024-03-23T14:43:12;17.20;99.90
64689;DHT22;62504;46.070;14.492;2024-03-23T14:46:09;17.20;99.90
64689;DHT22;62504;46.070;14.492;2024-03-23T14:48:36;17.20;99.90
64689;DHT22;62504;46.070;14.492;2024-03-23T14:51:02;17.10;99.90
64689;DHT22;62504;46.070;14.492;2024-03-23T14:53:34;17.20;99.90
64689;DHT22;62504;46.070;14.492;2024-03-23T14:56:00;17.20;99.90
64689;DHT22;62504;46.070;14.492;2024-03-23T14:58:27;17.20;99.90
64689;DHT22;62504;46.070;14.492;2024-03-23T15:00:52;17.20;99.90
64689;DHT22;62504;46.070;14.492;2024-03-23T15:03:18;17.10;99.90
64689;DHT22;62504;46.070;14.492;2024-03-23T15:05:58;17.20;99.90
64689;DHT22;62504;46.070;14.492;2024-03-23T15:08:25;17.10;99.90
64689;DHT22;62504;46.070;14.492;2024-03-23T15:10:51;17.10;99.90
64689;DHT22;62504;46.070;14.492;2024-03-23T15:13:17;17.00;99.90
64689;DHT22;62504;46.070;14.492;2024-03-23T15:15:43;17.00;99.90
64689;DHT22;62504;46.070;14.492;2024-03-23T15:18:11;17.00;99.90
64689;DHT22;62504;46.070;14.492;2024-03-23T15:20:38;17.10;99.90
64689;DHT22;62504;46.070;14.492;2024-03-23T15:23:04;17.10;99.90
64689;DHT22;62504;46.070;14.492;2024-03-23T15:25:30;17.10;99.90
64689;DHT22;62504;46.070;14.492;2024-03-23T15:27:57;17.10;99.90
64689;DHT22;62504;46.070;14.492;2024-03-23T15:30:24;17.10;99.90
64689;DHT22;62504;46.070;14.492;2024-03-23T15:32:50;17.00;99.90
64689;DHT22;62504;46.070;14.492;2024-03-23T15:35:16;17.00;99.90
64689;DHT22;62504;46.070;14.492;2024-03-23T15:37:41;17.00;99.90
64689;DHT22;62504;46.070;14.492;2024-03-23T15:40:08;17.10;99.90
64689;DHT22;62504;46.070;14.492;2024-03-23T15:42:35;17.00;99.90
64689;DHT22;62504;46.070;14.492;2024-03-23T15:45:01;17.00;99.90
64689;DHT22;62504;46.070;14.492;2024-03-23T15:47:29;17.00;99.90
64689;DHT22;62504;46.070;14.492;2024-03-23T15:49:54;17.10;99.90
64689;DHT22;62504;46.070;14.492;2024-03-23T15:52:21;17.10;99.90
64689;DHT22;62504;46.070;14.492;2024-03-23T15:54:46;17.00;99.90
64689;DHT22;62504;46.070;14.492;2024-03-23T15:57:12;17.00;99.90
64689;DHT22;62504;46.070;14.492;2024-03-23T15:59:41;17.00;99.90
64689;DHT22;62504;46.070;14.492;2024-03-23T16:02:07;17.00;99.90
64689;DHT22;62504;46.070;14.492;2024-03-23T16:04:32;16.90;99.90
64689;DHT22;62504;46.070;14.492;2024-03-23T16:06:58;16.90;99.90
64689;DHT22;62504;46.070;14.492;2024-03-23T16:09:23;16.90;99.90
64689;DHT22;62504;46.070;14.492;2024-03-23T16:11:49;16.80;99.90
64689;DHT22;62504;46.070;14.492;2024-03-23T16:14:15;16.80;99.90
64689;DHT22;62504;46.070;14.492;2024-03-23T16:16:40;16.80;99.90
64689;DHT22;62504;46.070;14.492;2024-03-23T16:19:06;16.80;99.90